KBLI/BLI METAR and TAF weather

Enter ICAO airport designator
Station Type Date Time Source
KBLI METAR 2022/01/26 07:09 UTC NOAA

KBLI 260709Z AUTO 36003KT 1SM R16/5000VP6000FT BR OVC002 02/01 A3027 RMK AO2 T00170006


Station Type Date Time Source
KBLI Decoded METAR 2022/01/26 07:09 UTC NOAA

BELLINGHAM INTERNATIONAL AIRPORT, WA, United States (KBLI) 48-48N 122-32W 50M
Jan 26, 2022 - 02:09 AM EST / 2022.01.26 0709 UTC
Wind: from the N (360 degrees) at 3 MPH (3 KT):0
Visibility: 1 mile(s):0
Sky conditions: overcast
Weather: mist
Temperature: 35.1 F (1.7 C)
Dew Point: 33.1 F (0.6 C)
Relative Humidity: 92%
Pressure (altimeter): 30.27 in. Hg (1025 hPa)
ob: KBLI 260709Z AUTO 36003KT 1SM R16/5000VP6000FT BR OVC002 02/01 A3027 RMK AO2 T00170006
cycle: 7

Station Type Date Time Source
KBLI TAF 2022/01/26 06:22 UTC NOAA

TAF KBLI 260520Z 2606/2706 04004KT 1/4SM FG VV002
FM261400 09005KT 1/4SM FG VV002
FM261800 02003KT 1/2SM FG OVC003
FM262100 35003KT 6SM BR SCT020

Example: see airport list